Time,TemperatureF,DewpointF,PressureIn,WindDirection,WindDirectionDegrees,WindSpeedMPH,WindSpeedGustMPH,Humidity,HourlyPrecipIn,Conditions,Clouds,dailyrainin,SoftwareType,DateUTC
2013-08-04 00:09:00,74.8,74.0,30.09,SW,215,0.0,2.0,96,0.00,,,0.00,weatherlink.com 1.10,2013-08-04 04:09:00,
2013-08-04 00:24:00,74.9,74.0,30.09,SW,215,0.0,1.0,96,0.01,,,0.01,weatherlink.com 1.10,2013-08-04 04:24:00,
2013-08-04 00:39:00,74.9,74.0,30.08,SW,215,0.0,1.0,96,0.01,,,0.01,weatherlink.com 1.10,2013-08-04 04:39:00,
2013-08-04 00:54:00,75.0,74.0,30.08,SW,220,1.0,5.0,97,0.01,,,0.01,weatherlink.com 1.10,2013-08-04 04:54:00,
2013-08-04 01:09:00,75.2,74.0,30.07,SW,217,2.0,3.0,97,0.01,,,0.01,weatherlink.com 1.10,2013-08-04 05:09:00,
2013-08-04 01:24:00,75.3,74.0,30.07,SW,230,1.0,3.0,97,0.00,,,0.01,weatherlink.com 1.10,2013-08-04 05:24:00,
2013-08-04 01:39:00,75.3,74.0,30.06,SW,225,0.0,3.0,97,0.00,,,0.01,weatherlink.com 1.10,2013-08-04 05:39:00,
2013-08-04 01:54:00,75.3,74.0,30.06,SW,225,0.0,1.0,97,0.00,,,0.01,weatherlink.com 1.10,2013-08-04 05:54:00,
2013-08-04 02:09:00,75.1,74.0,30.06,SW,225,0.0,0.0,97,0.00,,,0.01,weatherlink.com 1.10,2013-08-04 06:09:00,
2013-08-04 02:24:00,75.0,74.0,30.05,SW,225,0.0,0.0,97,0.00,,,0.01,weatherlink.com 1.10,2013-08-04 06:24:00,
2013-08-04 02:39:00,74.9,74.0,30.05,SW,225,0.0,0.0,97,0.00,,,0.01,weatherlink.com 1.10,2013-08-04 06:39:00,
2013-08-04 02:54:00,74.8,74.0,30.05,SW,225,0.0,0.0,97,0.00,,,0.01,weatherlink.com 1.10,2013-08-04 06:54:00,
2013-08-04 03:09:00,74.8,74.0,30.04,SW,225,0.0,3.0,97,0.00,,,0.01,weatherlink.com 1.10,2013-08-04 07:09:00,
2013-08-04 03:24:00,74.8,74.0,30.04,SW,225,0.0,2.0,97,0.00,,,0.01,weatherlink.com 1.10,2013-08-04 07:24:00,
2013-08-04 03:39:00,74.9,74.0,30.04,SW,215,0.0,3.0,97,0.00,,,0.01,weatherlink.com 1.10,2013-08-04 07:39:00,
2013-08-04 03:54:00,74.9,74.0,30.03,SW,215,0.0,3.0,97,0.00,,,0.01,weatherlink.com 1.10,2013-08-04 07:54:00,
2013-08-04 04:09:00,74.8,74.0,30.03,SW,215,0.0,2.0,97,0.00,,,0.01,weatherlink.com 1.10,2013-08-04 08:09:00,
2013-08-04 04:24:00,74.8,74.0,30.03,SW,215,0.0,2.0,97,0.00,,,0.01,weatherlink.com 1.10,2013-08-04 08:24:00,
2013-08-04 04:39:00,74.7,74.0,30.03,SW,215,0.0,1.0,97,0.00,,,0.01,weatherlink.com 1.10,2013-08-04 08:39:00,
2013-08-04 04:54:00,74.8,74.0,30.03,South,180,0.0,1.0,97,0.00,,,0.01,weatherlink.com 1.10,2013-08-04 08:54:00,
2013-08-04 05:09:00,74.9,74.0,30.03,SSW,208,0.0,3.0,97,0.00,,,0.01,weatherlink.com 1.10,2013-08-04 09:09:00,
2013-08-04 05:24:00,74.9,74.0,30.03,SW,223,1.0,3.0,97,0.00,,,0.01,weatherlink.com 1.10,2013-08-04 09:24:00,
2013-08-04 05:39:00,74.9,74.0,30.03,SW,223,0.0,2.0,97,0.00,,,0.01,weatherlink.com 1.10,2013-08-04 09:39:00,
2013-08-04 05:54:00,75.0,74.0,30.04,SW,223,1.0,3.0,97,0.00,,,0.01,weatherlink.com 1.10,2013-08-04 09:54:00,
2013-08-04 06:09:00,75.1,75.0,30.04,SW,214,1.0,4.0,98,0.00,,,0.01,weatherlink.com 1.10,2013-08-04 10:09:00,
2013-08-04 06:25:00,75.0,74.0,30.04,SW,214,0.0,3.0,98,0.00,,,0.01,weatherlink.com 1.10,2013-08-04 10:25:00,
2013-08-04 06:40:00,75.0,74.0,30.04,SW,214,0.0,3.0,97,0.00,,,0.01,weatherlink.com 1.10,2013-08-04 10:40:00,
2013-08-04 06:55:00,75.0,74.0,30.04,SW,214,1.0,2.0,98,0.00,,,0.01,weatherlink.com 1.10,2013-08-04 10:55:00,
2013-08-04 07:10:00,75.1,75.0,30.05,SW,214,0.0,2.0,98,0.00,,,0.01,weatherlink.com 1.10,2013-08-04 11:10:00,
2013-08-04 07:24:00,75.3,75.0,30.06,SW,230,1.0,2.0,98,0.00,,,0.01,weatherlink.com 1.10,2013-08-04 11:24:00,
2013-08-04 07:39:00,75.5,75.0,30.06,SW,230,0.0,3.0,98,0.00,,,0.01,weatherlink.com 1.10,2013-08-04 11:39:00,
2013-08-04 07:55:00,76.0,75.0,30.06,SSW,209,0.0,4.0,98,0.00,,,0.01,weatherlink.com 1.10,2013-08-04 11:55:00,
2013-08-04 08:10:00,76.5,76.0,30.06,SSW,209,2.0,3.0,98,0.00,,,0.01,weatherlink.com 1.10,2013-08-04 12:10:00,
2013-08-04 08:25:00,77.1,77.0,30.07,SSW,212,0.0,4.0,98,0.00,,,0.01,weatherlink.com 1.10,2013-08-04 12:25:00,
2013-08-04 08:40:00,78.0,77.0,30.07,SW,236,1.0,3.0,98,0.00,,,0.01,weatherlink.com 1.10,2013-08-04 12:40:00,
2013-08-04 08:54:00,78.7,78.0,30.07,SSW,209,2.0,4.0,97,0.00,,,0.01,weatherlink.com 1.10,2013-08-04 12:54:00,
2013-08-04 09:10:00,80.1,79.0,30.07,SSW,209,1.0,6.0,96,0.00,,,0.01,weatherlink.com 1.10,2013-08-04 13:10:00,
2013-08-04 09:25:00,80.9,79.0,30.07,SSW,207,3.0,6.0,94,0.00,,,0.01,weatherlink.com 1.10,2013-08-04 13:25:00,
2013-08-04 09:40:00,82.4,80.0,30.07,WSW,253,3.0,6.0,91,0.00,,,0.01,weatherlink.com 1.10,2013-08-04 13:40:00,
2013-08-04 09:55:00,83.3,80.0,30.07,West,268,2.0,6.0,90,0.00,,,0.01,weatherlink.com 1.10,2013-08-04 13:55:00,
2013-08-04 10:10:00,84.0,80.0,30.07,SSW,209,3.0,6.0,86,0.00,,,0.01,weatherlink.com 1.10,2013-08-04 14:10:00,
2013-08-04 10:25:00,84.8,80.0,30.07,SSW,194,4.0,6.0,86,0.00,,,0.01,weatherlink.com 1.10,2013-08-04 14:25:00,
2013-08-04 10:40:00,85.3,80.0,30.07,SW,220,2.0,7.0,85,0.00,,,0.01,weatherlink.com 1.10,2013-08-04 14:40:00,
2013-08-04 10:55:00,86.4,80.0,30.07,WNW,285,2.0,6.0,81,0.00,,,0.01,weatherlink.com 1.10,2013-08-04 14:55:00,
2013-08-04 11:10:00,84.8,79.0,30.07,West,263,1.0,6.0,83,0.00,,,0.01,weatherlink.com 1.10,2013-08-04 15:10:00,
2013-08-04 11:25:00,87.4,81.0,30.06,SW,230,3.0,5.0,81,0.00,,,0.01,weatherlink.com 1.10,2013-08-04 15:25:00,
2013-08-04 11:40:00,88.0,80.0,30.06,West,262,3.0,7.0,76,0.00,,,0.01,weatherlink.com 1.10,2013-08-04 15:40:00,
2013-08-04 11:55:00,87.7,79.0,30.06,SSW,197,4.0,7.0,76,0.00,,,0.01,weatherlink.com 1.10,2013-08-04 15:55:00,
2013-08-04 12:10:00,88.6,79.0,30.06,SW,215,4.0,8.0,72,0.00,,,0.01,weatherlink.com 1.10,2013-08-04 16:10:00,
2013-08-04 12:25:00,89.4,79.0,30.05,WNW,298,1.0,7.0,71,0.00,,,0.01,weatherlink.com 1.10,2013-08-04 16:25:00,
2013-08-04 12:40:00,89.6,80.0,30.04,SW,224,2.0,9.0,73,0.00,,,0.01,weatherlink.com 1.10,2013-08-04 16:40:00,
2013-08-04 12:55:00,89.5,79.0,30.04,SSW,206,3.0,9.0,70,0.00,,,0.01,weatherlink.com 1.10,2013-08-04 16:55:00,
2013-08-04 13:10:00,91.5,79.0,30.04,West,277,5.0,7.0,67,0.00,,,0.01,weatherlink.com 1.10,2013-08-04 17:10:00,
2013-08-04 13:25:00,81.9,74.0,30.08,SW,236,8.0,23.0,77,0.09,,,0.10,weatherlink.com 1.10,2013-08-04 17:25:00,
2013-08-04 13:40:00,73.8,70.0,30.06,SSW,200,3.0,7.0,89,0.61,,,0.62,weatherlink.com 1.10,2013-08-04 17:40:00,
2013-08-04 13:55:00,73.9,72.0,30.04,SW,217,0.0,2.0,94,0.64,,,0.65,weatherlink.com 1.10,2013-08-04 17:55:00,
2013-08-04 14:10:00,75.4,73.0,30.03,SW,217,0.0,2.0,93,0.64,,,0.65,weatherlink.com 1.10,2013-08-04 18:10:00,
2013-08-04 14:25:00,77.0,74.0,30.02,SW,217,1.0,2.0,91,0.51,,,0.65,weatherlink.com 1.10,2013-08-04 18:25:00,
2013-08-04 14:41:00,80.5,78.0,30.01,SW,232,1.0,4.0,92,0.02,,,0.65,weatherlink.com 1.10,2013-08-04 18:41:00,
2013-08-04 14:56:00,82.4,79.0,30.01,West,268,4.0,5.0,88,0.00,,,0.65,weatherlink.com 1.10,2013-08-04 18:56:00,
2013-08-04 15:11:00,83.4,79.0,30.01,West,273,4.0,6.0,86,0.00,,,0.65,weatherlink.com 1.10,2013-08-04 19:11:00,
2013-08-04 15:26:00,84.3,79.0,30.00,SW,221,4.0,8.0,84,0.00,,,0.65,weatherlink.com 1.10,2013-08-04 19:26:00,
2013-08-04 15:41:00,85.0,79.0,30.00,SW,227,4.0,6.0,83,0.00,,,0.65,weatherlink.com 1.10,2013-08-04 19:41:00,
2013-08-04 15:56:00,85.0,79.0,29.99,WSW,250,1.0,6.0,82,0.00,,,0.65,weatherlink.com 1.10,2013-08-04 19:56:00,
2013-08-04 16:10:00,85.0,79.0,29.99,SSW,192,4.0,6.0,82,0.00,,,0.65,weatherlink.com 1.10,2013-08-04 20:10:00,
2013-08-04 16:26:00,84.6,79.0,30.00,WSW,252,3.0,7.0,82,0.00,,,0.65,weatherlink.com 1.10,2013-08-04 20:26:00,
2013-08-04 16:41:00,84.4,79.0,29.99,WSW,253,0.0,6.0,83,0.00,,,0.65,weatherlink.com 1.10,2013-08-04 20:41:00,
2013-08-04 16:56:00,84.5,78.0,29.99,WNW,297,1.0,5.0,81,0.00,,,0.65,weatherlink.com 1.10,2013-08-04 20:56:00,
2013-08-04 17:11:00,84.5,78.0,30.00,SW,231,4.0,5.0,81,0.00,,,0.65,weatherlink.com 1.10,2013-08-04 21:11:00,
2013-08-04 17:26:00,84.4,78.0,30.00,West,264,2.0,5.0,81,0.00,,,0.65,weatherlink.com 1.10,2013-08-04 21:26:00,
2013-08-04 17:41:00,84.2,79.0,30.00,SW,225,1.0,3.0,83,0.00,,,0.65,weatherlink.com 1.10,2013-08-04 21:41:00,
2013-08-04 17:55:00,83.9,79.0,30.00,WSW,246,3.0,3.0,84,0.00,,,0.65,weatherlink.com 1.10,2013-08-04 21:55:00,
2013-08-04 18:11:00,83.7,78.0,29.99,WSW,254,1.0,3.0,83,0.00,,,0.65,weatherlink.com 1.10,2013-08-04 22:11:00,
2013-08-04 18:26:00,83.6,78.0,29.98,SW,234,0.0,4.0,83,0.00,,,0.65,weatherlink.com 1.10,2013-08-04 22:26:00,
2013-08-04 18:41:00,83.5,78.0,29.98,WSW,255,2.0,3.0,84,0.00,,,0.65,weatherlink.com 1.10,2013-08-04 22:41:00,
2013-08-04 18:55:00,83.2,79.0,29.99,West,270,0.0,3.0,86,0.00,,,0.65,weatherlink.com 1.10,2013-08-04 22:55:00,
2013-08-04 19:10:00,82.8,78.0,29.99,SW,223,1.0,3.0,86,0.00,,,0.65,weatherlink.com 1.10,2013-08-04 23:10:00,
2013-08-04 19:25:00,82.5,78.0,29.99,WSW,254,0.0,3.0,86,0.00,,,0.65,weatherlink.com 1.10,2013-08-04 23:25:00,
2013-08-04 19:41:00,82.4,78.0,29.99,WSW,254,1.0,2.0,87,0.00,,,0.65,weatherlink.com 1.10,2013-08-04 23:41:00,
2013-08-04 19:56:00,82.3,78.0,30.00,WSW,254,0.0,2.0,87,0.00,,,0.65,weatherlink.com 1.10,2013-08-04 23:56:00,
2013-08-04 20:11:00,81.9,78.0,30.00,WSW,254,0.0,1.0,87,0.00,,,0.65,weatherlink.com 1.10,2013-08-05 00:11:00,
2013-08-04 20:26:00,81.5,78.0,30.00,WSW,254,1.0,1.0,88,0.00,,,0.65,weatherlink.com 1.10,2013-08-05 00:26:00,
2013-08-04 20:41:00,81.0,78.0,30.00,SW,229,1.0,3.0,89,0.00,,,0.65,weatherlink.com 1.10,2013-08-05 00:41:00,
2013-08-04 20:56:00,80.7,78.0,30.00,SW,226,0.0,2.0,90,0.00,,,0.65,weatherlink.com 1.10,2013-08-05 00:56:00,
2013-08-04 21:11:00,80.5,77.0,30.01,SW,226,0.0,1.0,90,0.00,,,0.65,weatherlink.com 1.10,2013-08-05 01:11:00,
2013-08-04 21:26:00,80.4,78.0,30.01,SW,226,0.0,1.0,91,0.00,,,0.65,weatherlink.com 1.10,2013-08-05 01:26:00,
2013-08-04 21:41:00,80.2,77.0,30.00,SW,226,0.0,1.0,91,0.00,,,0.65,weatherlink.com 1.10,2013-08-05 01:41:00,
2013-08-04 21:56:00,79.9,77.0,30.00,SW,226,0.0,2.0,92,0.00,,,0.65,weatherlink.com 1.10,2013-08-05 01:56:00,
2013-08-04 22:11:00,79.7,77.0,30.01,SW,226,1.0,2.0,92,0.00,,,0.65,weatherlink.com 1.10,2013-08-05 02:11:00,
2013-08-04 22:26:00,79.5,77.0,30.01,SW,226,0.0,2.0,92,0.00,,,0.65,weatherlink.com 1.10,2013-08-05 02:26:00,
2013-08-04 22:41:00,79.4,77.0,30.01,SW,226,0.0,2.0,93,0.00,,,0.65,weatherlink.com 1.10,2013-08-05 02:41:00,
2013-08-04 22:56:00,79.3,77.0,30.01,SW,229,0.0,2.0,93,0.00,,,0.65,weatherlink.com 1.10,2013-08-05 02:56:00,
2013-08-04 23:11:00,79.1,77.0,30.01,SW,229,0.0,1.0,93,0.00,,,0.65,weatherlink.com 1.10,2013-08-05 03:11:00,
2013-08-04 23:26:00,78.9,77.0,30.00,SW,229,1.0,3.0,93,0.00,,,0.65,weatherlink.com 1.10,2013-08-05 03:26:00,
2013-08-04 23:41:00,78.8,77.0,30.01,SW,229,0.0,0.0,93,0.00,,,0.65,weatherlink.com 1.10,2013-08-05 03:41:00,
2013-08-04 23:56:00,78.7,77.0,30.01,SW,229,0.0,2.0,93,0.00,,,0.65,weatherlink.com 1.10,2013-08-05 03:56:00,